Time;durP1;ratioP1;P1;durP2;ratioP2;P2;SDS_P1;SDS_P2;PMS_P1;PMS_P2;Temp;Humidity;BMP_temperature;BMP_pressure;BME280_temperature;BME280_humidity;BME280_pressure;Samples;Min_cycle;Max_cycle;Signal;HPM_P1;HPM_P2
2022/07/22 00:00:50;;;;;;;;;;;;;;;15.28;64.03;100762.63;5038792;28;1910;-57
2022/07/22 00:03:16;;;;;;;;;;;;;;;16.84;56.89;100759.22;5037835;28;998;-58
2022/07/22 00:05:41;;;;;;;;;;;;;;;17.15;53.20;100757.28;5038699;28;1211;-57
2022/07/22 00:08:07;;;;;;;;;;;;;;;17.17;51.62;100757.84;5038172;28;1065;-57
2022/07/22 00:10:32;;;;;;;;;;;;;;;17.69;52.50;100761.25;5038463;28;1048;-57
2022/07/22 00:12:57;;;;;;;;;;;;;;;15.79;59.84;100766.72;5038353;28;1069;-58
2022/07/22 00:15:23;;;;;;;;;;;;;;;17.28;59.21;100764.94;5040940;28;1227;-57
2022/07/22 00:17:48;;;;;;;;;;;;;;;19.17;56.79;100767.97;5038214;28;2512;-57
2022/07/22 00:20:14;;;;;;;;;;;;;;;15.06;65.54;100766.31;5041313;28;1910;-57
2022/07/22 00:22:39;;;;;;;;;;;;;;;18.15;59.52;100762.97;5038373;28;1310;-57
2022/07/22 00:25:05;;;;;;;;;;;;;;;16.92;61.53;100761.44;5040306;28;1025;-57
2022/07/22 00:27:31;;;;;;;;;;;;;;;16.14;61.06;100770.69;5040196;28;1117;-57
2022/07/22 00:29:56;;;;;;;;;;;;;;;17.15;54.62;100760.03;5038319;28;1092;-57
2022/07/22 00:32:21;;;;;;;;;;;;;;;17.20;52.68;100762.75;5037935;28;1207;-57
2022/07/22 00:34:47;;;;;;;;;;;;;;;17.39;52.03;100748.41;5036808;28;1780;-57
2022/07/22 00:37:13;;;;;;;;;;;;;;;17.17;58.14;100754.28;5036471;28;926;-57
2022/07/22 00:39:38;;;;;;;;;;;;;;;16.32;61.76;100759.19;5037592;28;1973;-57
2022/07/22 00:42:04;;;;;;;;;;;;;;;18.90;57.61;100752.78;5003934;28;1556;-57
2022/07/22 00:44:29;;;;;;;;;;;;;;;15.77;63.69;100761.50;5020133;28;1673;-56
2022/07/22 00:46:54;;;;;;;;;;;;;;;17.50;61.96;100766.56;5037781;28;2630;-54
2022/07/22 00:49:20;;;;;;;;;;;;;;;18.83;58.39;100757.78;5020092;28;1128;-55
2022/07/22 00:51:45;;;;;;;;;;;;;;;15.30;66.00;100759.63;5037618;28;1069;-56
2022/07/22 00:54:11;;;;;;;;;;;;;;;16.97;56.25;100758.69;5037686;28;1100;-58
2022/07/22 00:56:37;;;;;;;;;;;;;;;17.18;53.44;100754.00;5019691;28;1121;-57
2022/07/22 00:59:04;;;;;;;;;;;;;;;17.23;51.73;100753.97;5038043;28;958;-58
2022/07/22 01:01:29;;;;;;;;;;;;;;;18.09;54.44;100761.34;5037641;28;1901;-58
2022/07/22 01:03:55;;;;;;;;;;;;;;;14.93;61.39;100753.09;5037685;28;1026;-59
2022/07/22 01:06:20;;;;;;;;;;;;;;;17.81;58.90;100749.94;5037424;28;1002;-58
2022/07/22 01:08:46;;;;;;;;;;;;;;;18.00;58.78;100750.13;5019712;28;1094;-59
2022/07/22 01:11:12;;;;;;;;;;;;;;;15.68;64.44;100758.47;5023029;28;1088;-58
2022/07/22 01:13:38;;;;;;;;;;;;;;;18.70;58.80;100749.06;5036743;28;1108;-59
2022/07/22 01:16:04;;;;;;;;;;;;;;;15.85;63.27;100746.47;5037232;28;1061;-58
2022/07/22 01:18:30;;;;;;;;;;;;;;;16.56;58.40;100751.28;5036872;28;2707;-57
2022/07/22 01:20:55;;;;;;;;;;;;;;;17.14;53.98;100749.31;5040920;28;1921;-57
2022/07/22 01:23:21;;;;;;;;;;;;;;;17.17;52.18;100741.34;5037182;28;1072;-57
2022/07/22 01:25:47;;;;;;;;;;;;;;;17.87;53.30;100753.47;5019264;28;1207;-57
2022/07/22 01:28:12;;;;;;;;;;;;;;;15.52;60.14;100743.84;5036730;28;1089;-57
2022/07/22 01:30:38;;;;;;;;;;;;;;;17.36;59.75;100743.50;5019272;28;1195;-58
2022/07/22 01:33:03;;;;;;;;;;;;;;;18.87;57.22;100742.31;5019011;28;1341;-57
2022/07/22 01:35:29;;;;;;;;;;;;;;;14.97;65.29;100751.50;5019506;28;1322;-57
2022/07/22 01:37:54;;;;;;;;;;;;;;;18.10;59.59;100741.81;5018578;28;1189;-57
2022/07/22 01:40:20;;;;;;;;;;;;;;;16.46;61.70;100732.03;5019220;28;1906;-57
2022/07/22 01:42:46;;;;;;;;;;;;;;;16.61;63.06;100744.97;5018734;28;1257;-57
2022/07/22 01:45:11;;;;;;;;;;;;;;;19.03;57.99;100740.25;5032669;28;801;-58
2022/07/22 01:47:37;;;;;;;;;;;;;;;15.12;64.37;100736.22;5018322;28;2413;-57
2022/07/22 01:50:03;;;;;;;;;;;;;;;18.12;60.77;100736.03;5018946;28;1324;-57
2022/07/22 01:52:29;;;;;;;;;;;;;;;17.37;60.96;100725.91;5018427;28;2277;-57
2022/07/22 01:54:54;;;;;;;;;;;;;;;15.79;62.68;100736.56;5036768;28;1069;-57
2022/07/22 01:57:20;;;;;;;;;;;;;;;17.07;55.06;100738.63;5036365;28;990;-58
2022/07/22 01:59:49;;;;;;;;;;;;;;;17.21;52.50;100731.44;5018033;28;1910;-57
2022/07/22 02:02:14;;;;;;;;;;;;;;;17.57;53.40;100738.75;5018825;28;1123;-58
2022/07/22 02:04:40;;;;;;;;;;;;;;;16.15;59.59;100737.50;5038100;28;970;-57
2022/07/22 02:07:05;;;;;;;;;;;;;;;16.70;60.59;100737.78;5044883;28;974;-58
2022/07/22 02:09:31;;;;;;;;;;;;;;;18.85;58.09;100747.31;5018559;28;1155;-57
2022/07/22 02:11:57;;;;;;;;;;;;;;;15.08;63.79;100744.13;5021875;28;1539;-56
2022/07/22 02:14:23;;;;;;;;;;;;;;;17.60;60.07;100730.75;5018829;28;1209;-57
2022/07/22 02:16:49;;;;;;;;;;;;;;;17.17;61.00;100746.84;5020344;28;2480;-56
2022/07/22 02:19:15;;;;;;;;;;;;;;;16.24;64.22;100744.09;5024522;28;1136;-56
2022/07/22 02:21:40;;;;;;;;;;;;;;;18.96;59.10;100743.38;5035924;28;1917;-56
2022/07/22 02:24:06;;;;;;;;;;;;;;;15.50;64.39;100746.03;5039805;28;1191;-57
2022/07/22 02:26:31;;;;;;;;;;;;;;;17.81;62.08;100744.44;5017996;28;1131;-56
2022/07/22 02:28:57;;;;;;;;;;;;;;;18.41;59.36;100741.59;5037371;28;1208;-56
2022/07/22 02:31:22;;;;;;;;;;;;;;;15.52;65.03;100740.28;5018379;28;1187;-57
2022/07/22 02:33:48;;;;;;;;;;;;;;;17.05;55.96;100738.88;5036050;28;1064;-56
2022/07/22 02:36:13;;;;;;;;;;;;;;;17.20;53.31;100745.47;5036229;28;1212;-57
2022/07/22 02:38:40;;;;;;;;;;;;;;;17.26;51.76;100736.94;4999007;28;1174;-56
2022/07/22 02:41:06;;;;;;;;;;;;;;;17.79;53.55;100747.47;5014631;28;1985;-56
2022/07/22 02:43:34;;;;;;;;;;;;;;;15.29;60.86;100747.00;5018333;28;1364;-57
2022/07/22 02:45:59;;;;;;;;;;;;;;;17.48;59.38;100738.50;5019905;28;1226;-57
2022/07/22 02:48:25;;;;;;;;;;;;;;;18.71;57.69;100734.19;5020028;28;3036;-56
2022/07/22 02:50:51;;;;;;;;;;;;;;;15.10;65.05;100739.25;5018355;28;1277;-56
2022/07/22 02:53:27;;;;;;;;;;;;;;;18.53;59.71;100726.66;5017977;28;1730;-56
2022/07/22 02:55:56;;;;;;;;;;;;;;;15.95;63.15;100731.94;5019995;28;1146;-56
2022/07/22 02:58:21;;;;;;;;;;;;;;;16.98;61.61;100738.34;5035579;28;1187;-56
2022/07/22 03:00:47;;;;;;;;;;;;;;;18.72;58.48;100735.84;5018077;28;1898;-56
2022/07/22 03:03:12;;;;;;;;;;;;;;;15.00;66.01;100748.22;5018146;28;1331;-57
2022/07/22 03:05:38;;;;;;;;;;;;;;;18.39;60.41;100738.31;5018253;28;1136;-57
2022/07/22 03:08:22;;;;;;;;;;;;;;;16.02;63.50;100748.97;5023287;28;1304;-56
2022/07/22 03:10:48;;;;;;;;;;;;;;;17.24;62.79;100738.31;5017899;28;1121;-56
2022/07/22 03:13:14;;;;;;;;;;;;;;;18.95;58.95;100741.72;5019285;28;1182;-56
2022/07/22 03:15:39;;;;;;;;;;;;;;;15.16;66.15;100740.09;5036971;28;1116;-52
2022/07/22 03:18:04;;;;;;;;;;;;;;;17.18;58.11;100744.91;5018378;28;2548;-57
2022/07/22 03:20:30;;;;;;;;;;;;;;;16.76;60.45;100736.72;5020680;28;1975;-57
2022/07/22 03:22:56;;;;;;;;;;;;;;;16.07;63.95;100747.09;5035544;28;899;-56
2022/07/22 03:25:21;;;;;;;;;;;;;;;18.72;59.70;100744.13;5018078;28;1185;-57
2022/07/22 03:27:47;;;;;;;;;;;;;;;15.33;64.32;100742.66;5017339;28;1364;-56
2022/07/22 03:30:13;;;;;;;;;;;;;;;16.52;58.39;100741.94;5018087;28;1216;-57
2022/07/22 03:32:44;;;;;;;;;;;;;;;17.01;54.07;100748.81;5017884;28;1338;-57
2022/07/22 03:35:10;;;;;;;;;;;;;;;18.03;56.29;100749.53;5035160;28;919;-59
2022/07/22 03:37:40;;;;;;;;;;;;;;;15.12;61.92;100748.00;5019444;28;1263;-57
2022/07/22 03:40:05;;;;;;;;;;;;;;;17.63;60.42;100748.63;5027485;28;1967;-57
2022/07/22 03:42:31;;;;;;;;;;;;;;;18.24;58.90;100753.03;5038550;28;1053;-58
2022/07/22 03:44:57;;;;;;;;;;;;;;;15.25;64.96;100749.47;5020813;28;1292;-58
2022/07/22 03:47:22;;;;;;;;;;;;;;;18.22;60.32;100744.22;5039674;28;2333;-58
2022/07/22 03:49:49;;;;;;;;;;;;;;;15.81;63.64;100753.56;5020519;28;1268;-57
2022/07/22 03:52:23;;;;;;;;;;;;;;;17.43;62.80;100750.34;5021122;28;1311;-59
2022/07/22 03:54:48;;;;;;;;;;;;;;;18.68;59.11;100751.31;5017471;28;1111;-58
2022/07/22 03:57:14;;;;;;;;;;;;;;;15.12;66.11;100749.94;5038539;28;1001;-57
2022/07/22 03:59:41;;;;;;;;;;;;;;;16.87;56.67;100750.41;5007215;28;1895;-56
2022/07/22 04:02:06;;;;;;;;;;;;;;;17.16;53.71;100747.13;5020807;28;1312;-56
2022/07/22 04:04:32;;;;;;;;;;;;;;;17.96;55.96;100740.78;5020655;28;1145;-57
2022/07/22 04:06:58;;;;;;;;;;;;;;;17.55;54.21;100740.97;5020931;28;1632;-58
2022/07/22 04:09:30;;;;;;;;;;;;;;;17.50;52.54;100743.72;5020568;28;1139;-57
2022/07/22 04:11:55;;;;;;;;;;;;;;;17.38;51.33;100736.63;5020906;28;1243;-58
2022/07/22 04:14:23;;;;;;;;;;;;;;;17.31;50.40;100738.03;5010390;28;1402;-58
2022/07/22 04:16:49;;;;;;;;;;;;;;;17.30;50.42;100728.13;5025137;28;2516;-57
2022/07/22 04:19:15;;;;;;;;;;;;;;;16.31;56.44;100740.25;5025753;28;1091;-57
2022/07/22 04:21:49;;;;;;;;;;;;;;;17.01;57.98;100743.31;5020235;28;1987;-58
2022/07/22 04:24:15;;;;;;;;;;;;;;;19.01;56.29;100729.53;5020335;28;1665;-58
2022/07/22 04:26:40;;;;;;;;;;;;;;;14.98;63.69;100750.38;5020539;28;1267;-60
2022/07/22 04:29:06;;;;;;;;;;;;;;;18.13;59.26;100741.25;5038304;28;1171;-62
2022/07/22 04:31:32;;;;;;;;;;;;;;;17.34;60.33;100730.03;5020554;28;1025;-58
2022/07/22 04:34:18;;;;;;;;;;;;;;;16.28;59.65;100738.88;5036137;28;1192;-57
2022/07/22 04:36:43;;;;;;;;;;;;;;;17.08;54.22;100732.84;5020312;28;1183;-60
2022/07/22 04:39:09;;;;;;;;;;;;;;;17.20;52.24;100734.47;5019767;28;1215;-58
2022/07/22 04:41:36;;;;;;;;;;;;;;;17.14;51.32;100739.16;5020083;28;1959;-56
2022/07/22 04:44:03;;;;;;;;;;;;;;;17.88;52.76;100741.34;5025355;28;1287;-57
2022/07/22 04:46:31;;;;;;;;;;;;;;;15.32;60.22;100739.09;5017779;28;2491;-57
2022/07/22 04:48:58;;;;;;;;;;;;;;;17.57;58.73;100744.25;5023554;28;1369;-57
2022/07/22 04:51:24;;;;;;;;;;;;;;;18.78;56.85;100745.69;5037582;28;1156;-60
2022/07/22 04:53:55;;;;;;;;;;;;;;;15.25;63.74;100756.84;5018664;28;1083;-58
2022/07/22 04:56:22;;;;;;;;;;;;;;;17.01;55.97;100745.22;5021902;28;1242;-57
2022/07/22 04:58:51;;;;;;;;;;;;;;;17.20;57.54;100746.28;5017041;28;1111;-57
2022/07/22 05:01:17;;;;;;;;;;;;;;;16.01;63.14;100750.09;5021255;28;1910;-59
2022/07/22 05:03:45;;;;;;;;;;;;;;;18.77;57.93;100746.81;5020016;28;1136;-53
2022/07/22 05:06:11;;;;;;;;;;;;;;;15.40;63.27;100755.03;5025540;28;1139;-56
2022/07/22 05:08:41;;;;;;;;;;;;;;;17.23;60.30;100753.16;5030447;28;1075;-57
2022/07/22 05:11:06;;;;;;;;;;;;;;;17.85;58.52;100758.41;5018202;28;1289;-57
2022/07/22 05:13:32;;;;;;;;;;;;;;;15.84;65.64;100758.53;5027021;28;1258;-56
2022/07/22 05:16:02;;;;;;;;;;;;;;;18.86;58.87;100757.19;5022442;28;1117;-56
2022/07/22 05:18:30;;;;;;;;;;;;;;;15.70;63.36;100769.97;5018645;28;2323;-57
2022/07/22 05:20:56;;;;;;;;;;;;;;;16.61;58.28;100772.41;5024271;28;2053;-56
2022/07/22 05:23:21;;;;;;;;;;;;;;;17.94;57.67;100768.59;5024067;28;1224;-58
2022/07/22 05:25:48;;;;;;;;;;;;;;;14.82;65.79;100760.41;5027048;28;1272;-56
2022/07/22 05:28:13;;;;;;;;;;;;;;;18.29;59.71;100763.16;5040834;28;1057;-59
2022/07/22 05:30:42;;;;;;;;;;;;;;;16.13;62.79;100758.06;5021102;28;1172;-57
2022/07/22 05:33:07;;;;;;;;;;;;;;;16.99;62.78;100758.44;5021712;28;1364;-58
2022/07/22 05:35:56;;;;;;;;;;;;;;;18.47;58.46;100756.16;5031172;28;1272;-57
2022/07/22 05:38:23;;;;;;;;;;;;;;;15.21;65.13;100756.56;5019688;28;1383;-58
2022/07/22 05:40:49;;;;;;;;;;;;;;;16.89;56.20;100745.53;5019022;28;1902;-58
2022/07/22 05:43:14;;;;;;;;;;;;;;;17.10;53.41;100741.63;5025101;28;1310;-57
2022/07/22 05:45:40;;;;;;;;;;;;;;;18.16;55.73;100744.53;5041887;28;938;-58
2022/07/22 05:48:05;;;;;;;;;;;;;;;14.96;63.19;100744.34;5007993;28;2176;-58
2022/07/22 05:50:32;;;;;;;;;;;;;;;17.82;58.17;100751.56;5023138;28;1507;-59
2022/07/22 05:52:58;;;;;;;;;;;;;;;18.32;56.51;100748.00;5025031;28;1177;-58
2022/07/22 05:55:23;;;;;;;;;;;;;;;18.02;57.07;100753.44;5039514;28;1125;-57
2022/07/22 05:57:52;;;;;;;;;;;;;;;17.92;57.31;100736.94;5022600;28;1155;-57
2022/07/22 06:00:18;;;;;;;;;;;;;;;17.85;57.41;100741.91;5018926;28;1909;-56
2022/07/22 06:02:43;;;;;;;;;;;;;;;17.79;57.37;100747.47;5037376;28;998;-57
2022/07/22 06:05:14;;;;;;;;;;;;;;;17.79;57.50;100749.38;5018699;28;1389;-59
2022/07/22 06:07:40;;;;;;;;;;;;;;;17.76;57.21;100742.50;5025054;28;1214;-59
2022/07/22 06:10:08;;;;;;;;;;;;;;;17.72;57.36;100751.63;5028207;28;1162;-58
2022/07/22 06:12:34;;;;;;;;;;;;;;;17.68;57.45;100751.34;5023083;28;2220;-59
2022/07/22 06:15:00;;;;;;;;;;;;;;;17.64;57.40;100747.50;5026028;28;1431;-59
2022/07/22 06:17:25;;;;;;;;;;;;;;;17.61;57.35;100750.81;5023081;28;1338;-59
2022/07/22 06:19:53;;;;;;;;;;;;;;;17.62;57.11;100755.22;5021823;28;1983;-59
2022/07/22 06:22:18;;;;;;;;;;;;;;;17.60;57.17;100750.00;5025227;28;1335;-60
2022/07/22 06:24:45;;;;;;;;;;;;;;;17.53;57.23;100744.00;5018588;28;1349;-59
2022/07/22 06:27:11;;;;;;;;;;;;;;;17.56;57.17;100746.19;5021419;28;1323;-59
2022/07/22 06:29:37;;;;;;;;;;;;;;;17.49;57.17;100753.06;5022805;28;1127;-57
2022/07/22 06:32:02;;;;;;;;;;;;;;;17.51;57.04;100743.44;5019931;28;1112;-59
2022/07/22 06:34:29;;;;;;;;;;;;;;;17.49;57.04;100742.91;5042988;28;942;-60
2022/07/22 06:37:01;;;;;;;;;;;;;;;17.44;57.21;100751.97;5018325;28;1123;-58
2022/07/22 06:39:27;;;;;;;;;;;;;;;17.44;57.03;100746.47;5037514;28;1156;-59
2022/07/22 06:42:13;;;;;;;;;;;;;;;17.43;57.00;100747.59;5016976;28;1355;-59
2022/07/22 06:44:57;;;;;;;;;;;;;;;17.43;57.05;100742.09;5030237;28;836;-59
2022/07/22 06:47:41;;;;;;;;;;;;;;;17.40;57.25;100739.94;5025655;28;1166;-57
2022/07/22 06:50:09;;;;;;;;;;;;;;;17.37;57.20;100737.72;5020326;28;1179;-58
2022/07/22 06:52:38;;;;;;;;;;;;;;;17.33;57.43;100739.38;5023764;28;1262;-57
2022/07/22 06:55:03;;;;;;;;;;;;;;;17.34;57.35;100743.78;5024826;28;2080;-57
2022/07/22 06:57:34;;;;;;;;;;;;;;;17.31;57.15;100738.03;5021671;28;1343;-56
2022/07/22 06:59:59;;;;;;;;;;;;;;;17.32;57.06;100735.00;5023554;28;1898;-57
2022/07/22 07:02:27;;;;;;;;;;;;;;;17.32;57.14;100737.75;5003958;28;1187;-57
2022/07/22 07:04:53;;;;;;;;;;;;;;;17.32;57.02;100731.41;5019382;28;1198;-57
2022/07/22 07:07:18;;;;;;;;;;;;;;;17.28;57.14;100731.16;5018794;28;1034;-57
2022/07/22 07:09:53;;;;;;;;;;;;;;;17.26;57.15;100725.94;5017793;28;1251;-57
2022/07/22 07:12:25;;;;;;;;;;;;;;;17.25;57.12;100732.53;5025246;28;1409;-58
2022/07/22 07:15:06;;;;;;;;;;;;;;;17.24;57.01;100736.38;5041905;28;1041;-57
2022/07/22 07:17:31;;;;;;;;;;;;;;;17.25;57.34;100732.53;5025261;28;1378;-60
2022/07/22 07:19:57;;;;;;;;;;;;;;;17.22;57.23;100735.00;5020415;28;1902;-58
2022/07/22 07:22:22;;;;;;;;;;;;;;;17.21;57.40;100730.63;5023721;28;1073;-58
2022/07/22 07:24:48;;;;;;;;;;;;;;;17.21;57.12;100739.69;5023355;28;1215;-57
2022/07/22 07:27:14;;;;;;;;;;;;;;;17.24;57.13;100735.56;5020617;28;1143;-59
2022/07/22 07:29:40;;;;;;;;;;;;;;;17.20;57.27;100745.47;5022732;28;1240;-59
2022/07/22 07:32:07;;;;;;;;;;;;;;;17.17;57.41;100746.03;5020070;28;1316;-54
2022/07/22 07:34:34;;;;;;;;;;;;;;;17.15;57.21;100742.72;5024753;28;1420;-58
2022/07/22 07:36:59;;;;;;;;;;;;;;;17.17;57.19;100746.03;5023678;28;1157;-56
2022/07/22 07:39:25;;;;;;;;;;;;;;;17.13;57.10;100742.19;5023203;28;1234;-58
2022/07/22 07:41:51;;;;;;;;;;;;;;;17.17;57.09;100746.03;5022851;28;1921;-59
2022/07/22 07:44:18;;;;;;;;;;;;;;;17.17;57.04;100751.53;5021470;28;1936;-57
2022/07/22 07:46:44;;;;;;;;;;;;;;;17.13;57.10;100748.50;5020103;28;1401;-57
2022/07/22 07:49:09;;;;;;;;;;;;;;;17.16;57.20;100752.63;5020772;28;1163;-59
2022/07/22 07:51:35;;;;;;;;;;;;;;;17.12;56.89;100744.09;5021030;28;1196;-58
2022/07/22 07:54:01;;;;;;;;;;;;;;;17.17;56.87;100746.03;5039509;28;1705;-59
2022/07/22 07:56:27;;;;;;;;;;;;;;;17.12;56.77;100741.34;5020884;28;1231;-57
2022/07/22 07:58:52;;;;;;;;;;;;;;;17.10;56.89;100747.13;5032280;28;1113;-58
2022/07/22 08:01:18;;;;;;;;;;;;;;;17.12;56.86;100749.59;5026267;28;1987;-58
2022/07/22 08:03:44;;;;;;;;;;;;;;;17.11;57.06;100742.47;5029104;28;1341;-57
2022/07/22 08:06:10;;;;;;;;;;;;;;;17.05;57.02;100747.13;5020960;28;1149;-60
2022/07/22 08:08:35;;;;;;;;;;;;;;;17.05;57.09;100743.56;5039818;28;1065;-56
2022/07/22 08:11:15;;;;;;;;;;;;;;;17.08;57.01;100752.09;5021692;28;1453;-57
2022/07/22 08:13:54;;;;;;;;;;;;;;;17.07;57.08;100749.63;5020475;28;1281;-56
2022/07/22 08:16:34;;;;;;;;;;;;;;;17.06;56.94;100746.03;5022088;28;1399;-56
2022/07/22 08:18:59;;;;;;;;;;;;;;;17.09;57.03;100750.97;5021475;28;1575;-57
2022/07/22 08:21:25;;;;;;;;;;;;;;;17.10;56.63;100755.38;5037435;28;1972;-60
2022/07/22 08:23:58;;;;;;;;;;;;;;;17.05;56.81;100749.88;5022097;28;1244;-57
2022/07/22 08:26:24;;;;;;;;;;;;;;;17.09;56.69;100752.91;5021429;28;1416;-59
2022/07/22 08:28:49;;;;;;;;;;;;;;;17.05;56.67;100752.63;5042278;28;1151;-57
2022/07/22 08:31:15;;;;;;;;;;;;;;;17.00;57.11;100749.91;5016918;28;1247;-56
2022/07/22 08:33:40;;;;;;;;;;;;;;;17.04;56.67;100748.25;5009760;28;1172;-59
2022/07/22 08:36:07;;;;;;;;;;;;;;;17.02;56.77;100753.19;5034310;28;1014;-58
2022/07/22 08:38:32;;;;;;;;;;;;;;;17.03;56.88;100743.03;5034990;28;1114;-60
2022/07/22 08:40:57;;;;;;;;;;;;;;;17.03;56.68;100751.28;5017513;28;2037;-59
2022/07/22 08:43:23;;;;;;;;;;;;;;;17.00;56.83;100747.16;5002790;28;1102;-57
2022/07/22 08:45:49;;;;;;;;;;;;;;;17.02;56.77;100742.19;5018920;28;1205;-58
2022/07/22 08:48:15;;;;;;;;;;;;;;;17.05;56.67;100749.88;5019565;28;1166;-60
2022/07/22 08:51:06;;;;;;;;;;;;;;;17.04;56.89;100748.25;5002573;28;1209;-56
2022/07/22 08:53:40;;;;;;;;;;;;;;;17.02;56.76;100744.94;5015994;28;1230;-56
2022/07/22 08:56:12;;;;;;;;;;;;;;;17.01;57.10;100745.22;5021337;28;1131;-58
2022/07/22 08:58:38;;;;;;;;;;;;;;;17.00;57.15;100744.41;5016971;28;1211;-57
2022/07/22 09:01:08;;;;;;;;;;;;;;;16.99;56.97;100745.50;5017199;28;1890;-59
2022/07/22 09:03:34;;;;;;;;;;;;;;;17.00;56.84;100744.41;5016537;28;1452;-58
2022/07/22 09:06:00;;;;;;;;;;;;;;;17.01;57.17;100745.22;5011725;28;1188;-56
2022/07/22 09:08:26;;;;;;;;;;;;;;;16.98;57.01;100746.59;5015064;28;1231;-58
2022/07/22 09:10:56;;;;;;;;;;;;;;;17.02;57.04;100750.44;5020700;28;1229;-58
2022/07/22 09:14:00;;;;;;;;;;;;;;;16.98;56.99;100743.03;5014790;28;1074;-59
2022/07/22 09:16:47;;;;;;;;;;;;;;;17.02;57.20;100761.41;5015530;28;1051;-58
2022/07/22 09:19:32;;;;;;;;;;;;;;;16.95;57.02;100744.41;5018702;28;1121;-59
2022/07/22 09:22:34;;;;;;;;;;;;;;;16.98;56.90;100749.34;5016445;28;1918;-60
2022/07/22 09:25:18;;;;;;;;;;;;;;;16.99;57.15;100742.75;5012513;28;1549;-58
2022/07/22 09:28:06;;;;;;;;;;;;;;;16.98;57.21;100746.59;5014892;28;1257;-59
2022/07/22 09:30:52;;;;;;;;;;;;;;;17.02;56.98;100746.88;5023592;28;1254;-59
2022/07/22 09:33:18;;;;;;;;;;;;;;;17.01;56.89;100747.97;5020797;28;1376;-58
2022/07/22 09:35:50;;;;;;;;;;;;;;;17.01;57.10;100747.97;5018483;28;1155;-58
2022/07/22 09:38:15;;;;;;;;;;;;;;;16.99;57.16;100741.94;5020398;28;1139;-58
2022/07/22 09:40:42;;;;;;;;;;;;;;;17.01;57.00;100743.31;5017372;28;1973;-59
2022/07/22 09:43:12;;;;;;;;;;;;;;;16.99;57.04;100744.69;5018464;28;1113;-58
2022/07/22 09:45:47;;;;;;;;;;;;;;;17.00;57.01;100735.31;5016006;28;1187;-59
2022/07/22 09:48:13;;;;;;;;;;;;;;;16.98;57.19;100732.03;5023169;28;1095;-59
2022/07/22 09:50:57;;;;;;;;;;;;;;;16.98;57.13;100734.78;5024049;28;931;-58
2022/07/22 09:53:32;;;;;;;;;;;;;;;16.99;57.04;100734.50;5023199;28;1360;-59
2022/07/22 09:56:03;;;;;;;;;;;;;;;16.97;57.13;100736.72;5020209;28;1116;-58
2022/07/22 09:58:28;;;;;;;;;;;;;;;16.99;57.20;100734.50;5020639;28;1159;-59
2022/07/22 10:00:54;;;;;;;;;;;;;;;17.01;57.18;100732.31;5016441;28;1971;-59
2022/07/22 10:03:32;;;;;;;;;;;;;;;17.01;56.99;100737.81;5017580;28;1159;-59
2022/07/22 10:05:59;;;;;;;;;;;;;;;17.00;57.13;100730.66;5016083;28;1644;-58
2022/07/22 10:08:26;;;;;;;;;;;;;;;17.02;57.12;100731.19;5020224;28;1272;-58
2022/07/22 10:10:52;;;;;;;;;;;;;;;16.98;57.35;100721.88;5021129;28;1077;-62
2022/07/22 10:13:17;;;;;;;;;;;;;;;16.99;57.23;100720.78;5020124;28;1190;-57
2022/07/22 10:15:43;;;;;;;;;;;;;;;17.00;57.28;100719.69;5019010;28;1107;-57
2022/07/22 10:18:14;;;;;;;;;;;;;;;17.00;57.28;100718.84;5018039;28;1111;-58
2022/07/22 10:20:40;;;;;;;;;;;;;;;17.02;57.24;100722.97;5015875;28;1963;-57
2022/07/22 10:23:06;;;;;;;;;;;;;;;17.00;57.42;100724.34;5015207;28;1270;-58
2022/07/22 10:25:47;;;;;;;;;;;;;;;17.02;57.29;100717.47;5021895;28;1388;-57
2022/07/22 10:28:20;;;;;;;;;;;;;;;16.99;57.28;100718.03;5031619;28;1211;-57
2022/07/22 10:30:45;;;;;;;;;;;;;;;17.03;57.24;100719.13;5021507;28;1044;-59
2022/07/22 10:33:11;;;;;;;;;;;;;;;17.02;57.19;100709.22;5025169;28;1089;-61
2022/07/22 10:35:57;;;;;;;;;;;;;;;17.02;57.12;100703.72;5017892;28;1128;-58
2022/07/22 10:38:23;;;;;;;;;;;;;;;17.00;57.18;100713.34;5020880;28;1388;-58
2022/07/22 10:40:51;;;;;;;;;;;;;;;17.01;57.24;100696.63;5017065;28;1922;-58
2022/07/22 10:43:21;;;;;;;;;;;;;;;16.99;57.43;100709.78;5026149;28;950;-58
2022/07/22 10:45:50;;;;;;;;;;;;;;;16.98;57.49;100710.88;5020940;28;974;-58
2022/07/22 10:48:15;;;;;;;;;;;;;;;16.91;57.26;100686.47;5027216;28;1243;-58
2022/07/22 10:51:04;;;;;;;;;;;;;;;17.02;57.15;100684.50;5020340;28;1321;-58
2022/07/22 10:53:46;;;;;;;;;;;;;;;17.02;57.37;100709.22;5020296;28;1597;-58
2022/07/22 10:56:11;;;;;;;;;;;;;;;17.00;57.26;100703.22;5039960;28;1219;-59
2022/07/22 10:58:38;;;;;;;;;;;;;;;17.05;57.20;100689.44;5049536;28;1057;-61
2022/07/22 11:01:04;;;;;;;;;;;;;;;17.03;57.43;100707.31;5044054;28;1974;-58
2022/07/22 11:03:30;;;;;;;;;;;;;;;17.02;57.41;100706.47;5045935;28;998;-60
2022/07/22 11:06:01;;;;;;;;;;;;;;;17.01;57.48;100715.84;5044162;28;1418;-58
2022/07/22 11:08:26;;;;;;;;;;;;;;;17.02;57.42;100701.00;5043559;28;962;-57
2022/07/22 11:10:52;;;;;;;;;;;;;;;17.01;57.48;100699.38;5025257;28;1129;-59
2022/07/22 11:13:33;;;;;;;;;;;;;;;17.00;57.41;100703.22;5040780;28;1018;-59
2022/07/22 11:16:14;;;;;;;;;;;;;;;17.00;57.36;100697.72;5034144;28;946;-57
2022/07/22 11:18:46;;;;;;;;;;;;;;;17.04;57.22;100704.28;5040806;28;942;-58
2022/07/22 11:21:13;;;;;;;;;;;;;;;17.09;57.82;100695.22;5045040;28;1979;-59
2022/07/22 11:23:39;;;;;;;;;;;;;;;17.29;58.87;100713.53;5045631;28;1107;-56
2022/07/22 11:26:05;;;;;;;;;;;;;;;17.23;58.85;100709.19;5029596;28;1144;-60
2022/07/22 11:28:30;;;;;;;;;;;;;;;17.18;58.52;100709.19;5042439;28;968;-61
2022/07/22 11:31:08;;;;;;;;;;;;;;;17.13;58.51;100706.47;5040836;28;999;-61
2022/07/22 11:33:34;;;;;;;;;;;;;;;17.13;58.38;100710.03;5041939;28;1116;-60
2022/07/22 11:36:00;;;;;;;;;;;;;;;17.13;58.28;100718.28;5039526;28;1049;-58
2022/07/22 11:38:38;;;;;;;;;;;;;;;17.13;57.90;100711.97;5038645;28;1081;-60
2022/07/22 11:41:04;;;;;;;;;;;;;;;17.06;57.92;100699.34;5044843;28;1968;-60
2022/07/22 11:43:37;;;;;;;;;;;;;;;17.11;58.08;100709.50;5046313;28;1026;-58
2022/07/22 11:46:02;;;;;;;;;;;;;;;17.09;57.93;100711.69;5046905;28;986;-58
2022/07/22 11:48:28;;;;;;;;;;;;;;;17.11;57.73;100709.50;5044022;28;969;-58
2022/07/22 11:51:03;;;;;;;;;;;;;;;17.06;57.84;100706.75;5026508;28;1031;-58
2022/07/22 11:53:28;;;;;;;;;;;;;;;17.04;57.51;100703.44;5041689;28;1057;-59
2022/07/22 11:55:57;;;;;;;;;;;;;;;17.06;57.60;100704.00;5044172;28;1163;-60
2022/07/22 11:58:36;;;;;;;;;;;;;;;17.08;57.30;100697.16;5040873;28;1054;-59
2022/07/22 12:01:01;;;;;;;;;;;;;;;17.06;57.65;100696.59;5041069;28;1976;-59
2022/07/22 12:03:27;;;;;;;;;;;;;;;17.04;57.73;100703.44;5039237;28;1086;-58
2022/07/22 12:05:53;;;;;;;;;;;;;;;16.96;57.75;100693.88;5024017;28;1006;-60
2022/07/22 12:08:18;;;;;;;;;;;;;;;17.01;57.63;100699.38;5026229;28;1024;-60
2022/07/22 12:10:43;;;;;;;;;;;;;;;17.07;57.51;100697.44;5045459;28;986;-59
2022/07/22 12:13:13;;;;;;;;;;;;;;;17.06;57.57;100690.28;5045697;28;1061;-59
2022/07/22 12:15:38;;;;;;;;;;;;;;;17.06;57.36;100685.59;5042265;28;966;-60
2022/07/22 12:18:23;;;;;;;;;;;;;;;17.04;57.57;100690.56;5037882;28;1026;-58
2022/07/22 12:20:49;;;;;;;;;;;;;;;17.03;57.47;100691.66;5038021;28;1906;-60
2022/07/22 12:23:14;;;;;;;;;;;;;;;17.04;57.42;100693.31;5044008;28;966;-59
2022/07/22 12:25:49;;;;;;;;;;;;;;;17.03;57.41;100691.66;5028187;28;990;-59
2022/07/22 12:28:15;;;;;;;;;;;;;;;17.04;57.39;100686.97;5042660;28;982;-62
2022/07/22 12:30:42;;;;;;;;;;;;;;;17.03;57.27;100677.91;5043394;28;1377;-64
2022/07/22 12:33:15;;;;;;;;;;;;;;;17.05;57.39;100686.69;5042429;28;1101;-62
2022/07/22 12:35:40;;;;;;;;;;;;;;;17.04;57.54;100682.31;5041042;28;1002;-59
2022/07/22 12:38:07;;;;;;;;;;;;;;;17.02;57.55;100684.50;5040274;28;871;-60
2022/07/22 12:40:32;;;;;;;;;;;;;;;17.05;57.38;100694.13;5039329;28;1910;-60
2022/07/22 12:43:02;;;;;;;;;;;;;;;17.08;57.34;100690.81;5038604;28;1144;-61
2022/07/22 12:45:28;;;;;;;;;;;;;;;17.06;57.45;100680.09;5044379;28;1025;-62
2022/07/22 12:47:59;;;;;;;;;;;;;;;17.02;57.66;100684.50;5047172;28;997;-60
2022/07/22 12:50:24;;;;;;;;;;;;;;;17.01;57.47;100677.38;5023549;28;1097;-61
2022/07/22 12:52:50;;;;;;;;;;;;;;;17.04;57.31;100681.47;5041588;28;1158;-60